Time;durP1;ratioP1;P1;durP2;ratioP2;P2;SDS_P1;SDS_P2;PMS_P1;PMS_P2;Temp;Humidity;BMP_temperature;BMP_pressure;BME280_temperature;BME280_humidity;BME280_pressure;Samples;Min_cycle;Max_cycle;Signal;HPM_P1;HPM_P2
2022/01/27 00:02:48;;;;;;;29.23;15.90;;;;;;;2.72;82.74;102745.72;5136566;27;20116;-82
2022/01/27 00:05:21;;;;;;;29.38;15.68;;;;;;;2.75;83.00;102754.44;5135878;27;20027;-82
2022/01/27 00:08:03;;;;;;;27.15;14.13;;;;;;;2.74;82.87;102738.97;5137012;27;20019;-82
2022/01/27 00:10:47;;;;;;;27.70;14.25;;;;;;;2.76;82.79;102727.09;5135154;27;20023;-82
2022/01/27 00:13:15;;;;;;;25.13;12.93;;;;;;;2.75;82.99;102717.66;5118272;27;20019;-83
2022/01/27 00:15:43;;;;;;;26.15;13.77;;;;;;;2.76;83.68;102692.06;5136437;27;20023;-83
2022/01/27 00:18:14;;;;;;;27.67;15.48;;;;;;;2.79;82.86;102701.63;5135809;27;20046;-82
2022/01/27 00:20:43;;;;;;;30.05;15.13;;;;;;;2.77;82.67;102693.84;5136592;27;20027;-82
2022/01/27 00:23:09;;;;;;;29.40;16.15;;;;;;;2.78;82.91;102699.88;5135804;27;20039;-83
2022/01/27 00:25:34;;;;;;;30.77;17.23;;;;;;;2.75;82.75;102695.47;5135708;27;20053;-82
2022/01/27 00:28:00;;;;;;;29.45;16.40;;;;;;;2.72;83.04;102682.50;5136251;27;20023;-83
2022/01/27 00:30:25;;;;;;;31.10;17.17;;;;;;;2.75;82.72;102695.47;5135949;27;20035;-83
2022/01/27 00:32:51;;;;;;;31.55;16.98;;;;;;;2.77;82.95;102703.22;5134809;27;20076;-83
2022/01/27 00:35:18;;;;;;;29.80;16.83;;;;;;;2.77;82.84;102711.78;5135054;27;20027;-82
2022/01/27 00:37:59;;;;;;;30.27;16.10;;;;;;;2.80;82.79;102713.63;5135982;27;20027;-82
2022/01/27 00:40:24;;;;;;;30.42;16.85;;;;;;;2.83;82.76;102713.75;5135562;27;20034;-83
2022/01/27 00:42:50;;;;;;;31.38;16.67;;;;;;;2.77;82.34;102698.09;5135916;27;20027;-82
2022/01/27 00:45:23;;;;;;;30.30;16.08;;;;;;;2.81;82.56;102687.19;5136017;27;20023;-82
2022/01/27 00:47:48;;;;;;;31.23;17.30;;;;;;;2.80;82.43;102687.09;5135177;27;20026;-83
2022/01/27 00:50:17;;;;;;;27.98;15.32;;;;;;;2.77;82.47;102668.19;5135704;27;20027;-83
2022/01/27 00:52:47;;;;;;;29.73;15.95;;;;;;;2.77;82.91;102675.88;5135282;27;20027;-82
2022/01/27 00:55:21;;;;;;;29.98;16.55;;;;;;;2.95;82.41;102672.44;5135548;27;20055;-82
2022/01/27 00:58:07;;;;;;;30.63;15.68;;;;;;;2.77;82.71;102673.31;5135373;27;20028;-82
2022/01/27 01:00:48;;;;;;;;;;;;;;;2.85;82.69;102681.38;5135447;27;20051;-83
2022/01/27 01:03:31;;;;;;;29.13;15.48;;;;;;;2.81;82.70;102669.25;5136031;27;19964;-82
2022/01/27 01:19:42;;;;;;;30.15;16.27;;;;;;;2.88;82.37;102635.38;5135084;27;20083;-83
2022/01/27 01:29:26;;;;;;;27.75;14.95;;;;;;;2.90;82.58;102651.72;5133920;27;20189;-83
2022/01/27 01:33:09;;;;;;;25.73;13.32;;;;;;;2.96;82.46;102642.50;5134831;27;20371;-82
2022/01/27 01:35:50;;;;;;;26.60;14.02;;;;;;;2.96;82.13;102645.06;5134245;27;20052;-82
2022/01/27 01:38:18;;;;;;;27.70;14.65;;;;;;;2.97;82.24;102642.59;5134687;27;20463;-83
2022/01/27 01:40:49;;;;;;;29.17;16.13;;;;;;;2.96;82.30;102622.00;5134987;27;20031;-83
2022/01/27 01:43:16;;;;;;;28.13;15.38;;;;;;;2.96;82.31;102615.19;5133970;27;20486;-82
2022/01/27 01:45:42;;;;;;;28.70;15.20;;;;;;;2.97;82.51;102596.44;5134312;27;20027;-83
2022/01/27 01:48:11;;;;;;;28.58;15.27;;;;;;;2.97;82.14;102600.66;5134919;27;20052;-82
2022/01/27 01:50:37;;;;;;;26.45;14.25;;;;;;;2.99;82.32;102607.63;5133902;27;20064;-83
2022/01/27 01:53:04;;;;;;;30.00;16.25;;;;;;;2.95;82.15;102616.00;5134916;27;20355;-82
2022/01/27 01:55:30;;;;;;;27.77;15.25;;;;;;;2.99;82.06;102620.44;5134590;27;20019;-83
2022/01/27 01:57:57;;;;;;;28.83;15.35;;;;;;;3.06;82.02;102621.59;5131800;27;20035;-83
2022/01/27 02:00:24;;;;;;;28.30;15.50;;;;;;;2.98;82.09;102608.44;5134742;27;20030;-83
2022/01/27 02:02:49;;;;;;;28.75;15.57;;;;;;;3.02;82.39;102606.91;5134834;27;20023;-83
2022/01/27 02:05:15;;;;;;;29.10;16.00;;;;;;;3.00;82.38;102600.81;5133840;27;20125;-82
2022/01/27 02:08:00;;;;;;;29.27;16.33;;;;;;;3.03;82.33;102604.38;5134719;27;20047;-82
2022/01/27 02:17:49;;;;;;;26.95;15.25;;;;;;;3.06;82.23;102589.13;5133852;28;20068;-83
2022/01/27 02:18:46;;;;;;;27.30;15.40;;;;;;;3.02;82.11;102563.28;5133967;28;20084;-82
2022/01/27 02:21:12;;;;;;;27.08;15.00;;;;;;;3.02;82.29;102553.03;5134144;28;20474;-82
2022/01/27 02:23:37;;;;;;;26.77;14.45;;;;;;;3.02;82.60;102565.84;5133913;28;20054;-83
2022/01/27 02:26:02;;;;;;;29.15;16.50;;;;;;;3.05;82.26;102566.84;5133742;28;20019;-82
2022/01/27 02:28:27;;;;;;;25.58;14.07;;;;;;;3.04;82.13;102579.63;5134373;28;20447;-82
2022/01/27 02:30:59;;;;;;;25.60;13.63;;;;;;;3.06;82.14;102571.19;5134308;28;20030;-83
2022/01/27 02:33:31;;;;;;;27.40;14.93;;;;;;;3.12;82.26;102565.44;5133337;28;20397;-82
2022/01/27 02:35:57;;;;;;;27.88;15.25;;;;;;;3.06;82.27;102566.06;5133774;28;20045;-82
2022/01/27 02:38:22;;;;;;;26.98;14.07;;;;;;;3.09;82.12;102576.44;5133686;28;20015;-82
2022/01/27 02:41:02;;;;;;;25.75;13.70;;;;;;;3.11;82.41;102570.47;5134014;28;20083;-82
2022/01/27 02:43:40;;;;;;;24.23;12.07;;;;;;;3.09;82.41;102549.91;5134347;28;20064;-82
2022/01/27 02:46:21;;;;;;;25.38;12.80;;;;;;;3.08;82.48;102549.03;5133186;28;20027;-82
2022/01/27 02:48:46;;;;;;;27.60;15.15;;;;;;;3.11;82.48;102557.66;5134408;28;20426;-82
2022/01/27 02:51:11;;;;;;;26.13;13.95;;;;;;;3.09;82.90;102557.59;5134164;28;20096;-83
2022/01/27 02:53:39;;;;;;;26.33;13.45;;;;;;;3.12;82.51;102551.72;5132941;28;20379;-82
2022/01/27 02:56:05;;;;;;;28.15;14.73;;;;;;;3.15;82.35;102555.31;5133632;28;20022;-82
2022/01/27 02:58:30;;;;;;;26.70;13.77;;;;;;;3.15;82.45;102539.94;5135926;27;20023;-82
2022/01/27 03:00:55;;;;;;;26.42;13.20;;;;;;;3.16;82.65;102521.13;5136872;27;20077;-82
2022/01/27 03:03:21;;;;;;;29.67;15.65;;;;;;;3.12;82.62;102495.28;5138101;27;20027;-82
2022/01/27 03:05:46;;;;;;;29.67;15.57;;;;;;;3.21;82.28;102498.22;5129158;27;20027;-83
2022/01/27 03:08:12;;;;;;;28.02;15.10;;;;;;;3.14;82.41;102503.91;5137259;27;20069;-83
2022/01/27 03:10:51;;;;;;;27.35;14.48;;;;;;;3.14;82.43;102521.88;5137712;27;20026;-82
2022/01/27 03:13:16;;;;;;;27.58;15.10;;;;;;;3.12;82.32;102516.69;5137018;27;20106;-82
2022/01/27 03:15:41;;;;;;;25.98;13.85;;;;;;;3.09;82.75;102514.88;5137696;27;20106;-83
2022/01/27 03:18:15;;;;;;;26.58;13.90;;;;;;;3.16;82.59;102510.84;5137443;27;20055;-82
2022/01/27 03:20:54;;;;;;;27.40;14.63;;;;;;;3.14;82.43;102503.91;5136978;27;20110;-82
2022/01/27 03:23:41;;;;;;;26.00;12.75;;;;;;;3.15;83.07;102503.09;5137244;27;20043;-83
2022/01/27 03:26:12;;;;;;;24.17;12.20;;;;;;;3.14;82.78;102504.81;5137554;27;20118;-82
2022/01/27 03:28:38;;;;;;;26.55;13.10;;;;;;;3.14;83.01;102497.13;5136907;27;20027;-82
2022/01/27 03:31:03;;;;;;;24.02;12.35;;;;;;;3.14;82.72;102493.66;5137085;27;20367;-82
2022/01/27 03:33:28;;;;;;;23.98;11.93;;;;;;;3.12;82.85;102501.31;5137791;27;20031;-82
2022/01/27 03:35:54;;;;;;;28.45;13.73;;;;;;;3.12;82.99;102492.72;5136627;27;20023;-83
2022/01/27 03:38:19;;;;;;;25.73;13.48;;;;;;;3.14;83.00;102501.34;5137093;27;20374;-82
2022/01/27 03:40:53;;;;;;;25.15;12.65;;;;;;;3.11;82.85;102496.09;5137436;27;20033;-82
2022/01/27 03:43:38;;;;;;;25.27;12.23;;;;;;;3.07;83.28;102492.53;5136145;27;20099;-83
2022/01/27 03:46:18;;;;;;;26.70;12.98;;;;;;;3.07;83.28;102498.53;5137071;27;20144;-82
2022/01/27 03:48:55;;;;;;;27.08;13.18;;;;;;;3.05;82.83;102489.00;5136426;27;20036;-82
2022/01/27 03:51:21;;;;;;;27.60;13.60;;;;;;;3.02;83.49;102491.47;5136785;27;20026;-83
2022/01/27 03:53:46;;;;;;;25.45;12.27;;;;;;;3.05;83.62;102492.47;5136677;27;20039;-82
2022/01/27 03:56:20;;;;;;;25.95;12.77;;;;;;;3.07;83.31;102490.84;5136268;27;20035;-82
2022/01/27 03:58:46;;;;;;;26.05;13.32;;;;;;;3.05;83.83;102486.44;5136838;27;20015;-82
2022/01/27 04:01:11;;;;;;;24.05;12.13;;;;;;;3.03;83.76;102473.56;5136989;27;20057;-82
2022/01/27 04:03:38;;;;;;;26.50;13.00;;;;;;;3.09;83.59;102466.13;5136149;27;20019;-82
2022/01/27 04:06:08;;;;;;;26.75;12.77;;;;;;;3.06;83.66;102453.19;5136553;27;20406;-82
2022/01/27 04:08:37;;;;;;;25.95;12.90;;;;;;;3.05;83.69;102450.53;5130305;27;20482;-82
2022/01/27 04:11:04;;;;;;;24.77;12.43;;;;;;;3.07;83.48;102443.78;5135642;27;20038;-82
2022/01/27 04:13:39;;;;;;;26.10;12.98;;;;;;;3.05;83.77;102433.47;5136414;27;20034;-82
2022/01/27 04:16:19;;;;;;;25.45;12.60;;;;;;;3.02;84.00;102445.28;5136734;27;20023;-82
2022/01/27 04:19:00;;;;;;;26.83;13.77;;;;;;;3.05;83.82;102447.97;5135497;27;20033;-82
2022/01/27 04:21:25;;;;;;;26.50;12.98;;;;;;;3.06;84.17;102445.47;5134372;27;20088;-83
2022/01/27 04:23:51;;;;;;;25.60;12.10;;;;;;;3.09;83.91;102439.59;5135665;27;20332;-83
2022/01/27 04:26:20;;;;;;;25.88;13.10;;;;;;;3.08;84.33;102438.72;5136472;27;20015;-83
2022/01/27 04:28:48;;;;;;;25.63;12.50;;;;;;;3.06;84.23;102439.47;5136453;27;20060;-83
2022/01/27 04:31:13;;;;;;;24.27;11.75;;;;;;;3.03;84.16;102440.22;5135363;27;20106;-82
2022/01/27 04:33:41;;;;;;;27.10;13.30;;;;;;;3.04;84.48;102438.53;5136388;27;20110;-82
2022/01/27 04:36:18;;;;;;;25.55;12.77;;;;;;;3.00;84.60;102428.97;5136140;27;20469;-82
2022/01/27 04:41:17;;;;;;;24.45;12.35;;;;;;;2.97;84.38;102403.16;5136223;27;20038;-82
2022/01/27 04:46:30;;;;;;;26.55;11.98;;;;;;;2.98;84.60;102417.75;5135311;27;20031;-82
2022/01/27 04:49:10;;;;;;;27.05;13.18;;;;;;;3.00;84.71;102416.13;5135964;27;20470;-83
2022/01/27 04:51:47;;;;;;;27.45;13.07;;;;;;;3.05;84.34;102430.00;5135353;27;20470;-82
2022/01/27 04:54:35;;;;;;;25.30;12.18;;;;;;;2.96;84.85;102412.56;5135791;27;20105;-82
2022/01/27 04:57:05;;;;;;;25.95;12.05;;;;;;;2.97;84.31;102404.06;5115278;28;20031;-82
2022/01/27 04:59:36;;;;;;;25.58;12.23;;;;;;;2.99;84.74;102406.69;5114378;28;20015;-82
2022/01/27 05:02:06;;;;;;;25.48;12.75;;;;;;;2.93;84.76;102397.91;5115179;28;20028;-82
2022/01/27 05:04:35;;;;;;;24.25;11.45;;;;;;;2.96;84.61;102402.31;5115259;28;20039;-82
2022/01/27 05:07:04;;;;;;;25.40;11.77;;;;;;;2.96;84.90;102399.75;5119999;27;20019;-83
2022/01/27 05:09:30;;;;;;;25.63;12.55;;;;;;;2.93;84.90;102390.22;5135316;27;20023;-82
2022/01/27 05:12:06;;;;;;;23.98;11.65;;;;;;;2.95;84.60;102385.16;5135498;27;20041;-82
2022/01/27 05:14:31;;;;;;;24.83;11.53;;;;;;;2.97;85.07;102388.69;5134616;27;20050;-82
2022/01/27 05:16:56;;;;;;;24.27;11.32;;;;;;;2.99;85.21;102388.72;5135283;27;20076;-82
2022/01/27 05:19:22;;;;;;;25.10;11.90;;;;;;;3.03;84.64;102383.78;5134900;27;20029;-82
2022/01/27 05:21:47;;;;;;;26.27;12.65;;;;;;;3.00;85.41;102382.78;5133636;27;20044;-82
2022/01/27 05:24:13;;;;;;;23.67;10.98;;;;;;;3.03;84.93;102382.91;5134765;27;20527;-82
2022/01/27 05:26:39;;;;;;;23.85;10.82;;;;;;;3.05;85.21;102378.69;5135236;27;20371;-82
2022/01/27 05:29:10;;;;;;;25.20;12.68;;;;;;;3.19;84.34;102369.88;5134442;27;20051;-82
2022/01/27 05:31:36;;;;;;;25.23;12.35;;;;;;;3.11;84.88;102366.13;5134071;27;20042;-82
2022/01/27 05:34:03;;;;;;;25.80;11.52;;;;;;;3.08;84.66;102354.06;5134171;27;20477;-82
2022/01/27 05:36:31;;;;;;;24.35;11.05;;;;;;;3.13;85.19;102359.38;5134864;27;20114;-82
2022/01/27 05:38:57;;;;;;;27.70;13.43;;;;;;;3.23;84.63;102356.38;5134722;27;20552;-82
2022/01/27 05:41:22;;;;;;;26.92;13.23;;;;;;;3.15;85.33;102356.88;5133986;27;20172;-82
2022/01/27 05:43:56;;;;;;;26.92;13.07;;;;;;;3.20;85.44;102360.50;5134512;27;20030;-82
2022/01/27 05:46:36;;;;;;;27.20;12.23;;;;;;;3.29;85.28;102363.44;5134905;27;20023;-82
2022/01/27 05:49:01;;;;;;;27.08;13.55;;;;;;;3.22;85.22;102348.59;5134012;27;20022;-82
2022/01/27 05:51:28;;;;;;;26.33;12.88;;;;;;;3.24;84.90;102357.22;5134414;27;20027;-82
2022/01/27 05:53:56;;;;;;;26.05;12.75;;;;;;;3.26;85.02;102354.75;5134926;27;20076;-82
2022/01/27 05:56:21;;;;;;;24.88;11.80;;;;;;;3.32;84.68;102349.84;5133491;27;20019;-82
2022/01/27 05:58:47;;;;;;;24.90;12.23;;;;;;;3.39;84.94;102350.13;5134763;27;20029;-82
2022/01/27 06:01:15;;;;;;;27.27;13.50;;;;;;;3.43;84.70;102363.09;5134277;27;20054;-82
2022/01/27 06:03:40;;;;;;;27.45;13.25;;;;;;;3.44;84.71;102346.84;5133667;27;20019;-82
2022/01/27 06:06:05;;;;;;;27.67;14.10;;;;;;;3.40;85.33;102343.31;5134323;27;20027;-81
2022/01/27 06:08:40;;;;;;;25.42;13.10;;;;;;;3.47;84.68;102345.31;5134237;27;20027;-82
2022/01/27 06:11:05;;;;;;;26.77;13.27;;;;;;;3.45;85.34;102331.53;5133845;28;20058;-82
2022/01/27 06:13:31;;;;;;;24.98;12.23;;;;;;;3.42;84.91;102321.13;5134269;28;20043;-82
2022/01/27 06:15:58;;;;;;;28.02;13.82;;;;;;;3.46;85.10;102332.41;5134538;28;20445;-82
2022/01/27 06:18:39;;;;;;;27.17;13.73;;;;;;;3.47;84.70;102329.00;5133210;28;20042;-82
2022/01/27 06:21:07;;;;;;;25.67;12.38;;;;;;;3.51;85.66;102328.31;5134096;28;20039;-82
2022/01/27 06:23:33;;;;;;;26.48;12.23;;;;;;;3.51;85.40;102328.31;5133905;28;20026;-82
2022/01/27 06:25:59;;;;;;;24.65;11.75;;;;;;;3.48;86.07;102325.63;5134297;28;20027;-82
2022/01/27 06:28:25;;;;;;;25.92;13.27;;;;;;;3.60;85.13;102326.09;5134313;28;20079;-82
2022/01/27 06:30:50;;;;;;;27.55;13.60;;;;;;;3.56;85.89;102331.91;5133318;28;20023;-83
2022/01/27 06:33:15;;;;;;;25.88;12.73;;;;;;;3.53;86.09;102332.69;5136417;27;20027;-83
2022/01/27 06:35:41;;;;;;;28.15;13.95;;;;;;;3.56;85.38;102324.22;5138501;27;20128;-83
2022/01/27 06:38:07;;;;;;;26.58;12.93;;;;;;;3.52;86.31;102330.94;5137675;27;20056;-82
2022/01/27 06:40:32;;;;;;;24.10;11.38;;;;;;;3.55;85.88;102314.75;5138018;27;20478;-82
2022/01/27 06:42:57;;;;;;;26.25;12.70;;;;;;;3.55;85.84;102300.25;5138282;27;20023;-82
2022/01/27 06:45:23;;;;;;;26.98;13.30;;;;;;;3.59;86.61;102305.50;5137373;27;20050;-82
2022/01/27 06:47:48;;;;;;;27.25;12.93;;;;;;;3.55;86.76;102301.94;5137535;27;20105;-83
2022/01/27 06:50:36;;;;;;;26.95;12.90;;;;;;;3.61;86.53;102297.03;5138236;27;20019;-83
2022/01/27 06:53:02;;;;;;;27.23;13.60;;;;;;;3.60;86.25;102303.00;5137258;27;20031;-83
2022/01/27 06:55:28;;;;;;;27.42;12.80;;;;;;;3.61;86.88;102306.41;5079507;22;20052;-82
2022/01/27 06:57:53;;;;;;;26.10;12.93;;;;;;;3.62;86.73;102311.63;5036772;28;20030;-83
2022/01/27 07:00:18;;;;;;;27.20;13.98;;;;;;;3.62;86.83;102292.75;5036239;28;20112;-82
2022/01/27 07:02:44;;;;;;;28.02;13.70;;;;;;;3.65;86.83;102309.19;5036526;28;20577;-82
2022/01/27 07:05:13;;;;;;;30.10;14.98;;;;;;;3.66;87.32;102302.34;5035185;28;20034;-82
2022/01/27 07:07:51;;;;;;;27.55;14.30;;;;;;;3.69;87.14;102305.03;5036033;28;20448;-82
2022/01/27 07:10:16;;;;;;;26.88;13.35;;;;;;;3.70;87.16;102299.94;5036644;28;20466;-82
2022/01/27 07:12:41;;;;;;;29.20;13.57;;;;;;;3.71;87.00;102306.81;5035664;28;20079;-82
2022/01/27 07:15:08;;;;;;;28.90;14.20;;;;;;;3.74;86.69;102302.63;5032233;28;20087;-82
2022/01/27 07:17:33;;;;;;;26.10;12.45;;;;;;;3.74;86.72;102297.50;5016881;28;20029;-82
2022/01/27 07:19:59;;;;;;;25.77;12.57;;;;;;;3.77;86.51;102307.88;5015865;28;20152;-82
2022/01/27 07:22:24;;;;;;;25.73;12.18;;;;;;;3.76;86.82;102301.84;5016575;28;20034;-82
2022/01/27 07:24:49;;;;;;;28.13;13.88;;;;;;;3.77;87.19;102319.03;5016681;28;20029;-82
2022/01/27 07:27:15;;;;;;;26.95;12.70;;;;;;;3.78;86.71;102315.63;5016475;28;20025;-81
2022/01/27 07:29:40;;;;;;;26.25;12.48;;;;;;;3.85;86.37;102309.03;5017065;28;20033;-83
2022/01/27 07:32:06;;;;;;;26.92;13.18;;;;;;;3.83;86.63;102329.50;5016345;28;20033;-83
2022/01/27 07:34:34;;;;;;;26.77;13.48;;;;;;;3.82;86.80;102314.94;5015823;28;20593;-82
2022/01/27 07:37:02;;;;;;;27.65;13.32;;;;;;;3.86;86.80;102311.66;5017298;28;20037;-82
2022/01/27 07:39:27;;;;;;;26.05;12.23;;;;;;;3.83;86.54;102316.66;5019153;28;20115;-82
2022/01/27 07:42:00;;;;;;;25.55;12.43;;;;;;;3.88;86.80;102310.81;5035277;28;20071;-80
2022/01/27 07:44:26;;;;;;;27.67;13.18;;;;;;;3.89;86.48;102310.88;5035695;28;20021;-80
2022/01/27 07:46:51;;;;;;;25.88;13.10;;;;;;;3.90;86.60;102315.19;5036060;28;20037;-81
2022/01/27 07:49:16;;;;;;;25.95;12.35;;;;;;;3.91;86.78;102311.81;5035358;28;20104;-80
2022/01/27 07:51:41;;;;;;;25.95;12.32;;;;;;;3.93;86.79;102315.31;5034131;28;20051;-82
2022/01/27 07:54:07;;;;;;;24.88;11.85;;;;;;;3.94;87.23;102317.06;5035503;28;20056;-82
2022/01/27 07:56:32;;;;;;;28.92;14.70;;;;;;;3.92;88.70;102326.41;5035296;28;20052;-83
2022/01/27 07:58:58;;;;;;;31.05;14.90;;;;;;;3.89;89.09;102330.56;5035887;28;20342;-83
2022/01/27 08:01:24;;;;;;;27.92;14.82;;;;;;;3.89;89.47;102326.28;5034286;28;20041;-83
2022/01/27 08:03:50;;;;;;;27.77;14.18;;;;;;;3.91;89.55;102324.66;5025767;28;20473;-83
2022/01/27 08:06:15;;;;;;;28.52;13.00;;;;;;;3.85;88.99;102330.44;5015496;28;20029;-83
2022/01/27 08:08:43;;;;;;;27.05;13.43;;;;;;;3.86;89.48;102324.47;5015031;28;20021;-83
2022/01/27 08:11:09;;;;;;;28.73;13.48;;;;;;;3.86;89.41;102324.47;5015366;28;20032;-84
2022/01/27 08:13:37;;;;;;;28.70;13.82;;;;;;;3.81;90.42;102331.16;5015727;28;20030;-84
2022/01/27 08:16:03;;;;;;;27.95;13.65;;;;;;;3.84;90.75;102336.38;5014582;28;20037;-82
2022/01/27 08:18:40;;;;;;;28.42;14.75;;;;;;;3.85;90.13;102324.44;5024925;28;20190;-81
2022/01/27 08:21:05;;;;;;;29.40;14.68;;;;;;;3.81;90.89;102322.56;5015506;28;20030;-82
2022/01/27 08:23:31;;;;;;;30.88;15.00;;;;;;;3.81;90.91;102320.88;5019661;28;20086;-82
2022/01/27 08:26:05;;;;;;;29.38;14.88;;;;;;;3.81;91.78;102318.31;5034495;28;20056;-83
2022/01/27 08:28:37;;;;;;;29.88;15.55;;;;;;;3.82;91.58;102322.66;5034563;28;20026;-83
2022/01/27 08:31:04;;;;;;;28.80;14.65;;;;;;;3.83;91.28;102321.78;5033138;28;20030;-82
2022/01/27 08:33:31;;;;;;;28.63;15.25;;;;;;;3.80;91.75;102314.00;5021465;28;20104;-85
2022/01/27 08:35:58;;;;;;;;;;;;;;;3.80;92.28;102318.25;5034544;28;20022;-83
2022/01/27 08:38:24;;;;;;;29.40;15.20;;;;;;;3.79;92.24;102314.81;5033452;28;20380;-84
2022/01/27 08:40:49;;;;;;;29.40;14.77;;;;;;;3.79;92.56;102309.69;5032749;28;20080;-83
2022/01/27 08:43:15;;;;;;;29.75;14.52;;;;;;;3.76;93.00;102316.41;5034029;28;20025;-83
2022/01/27 08:45:42;;;;;;;29.95;15.27;;;;;;;3.80;92.62;102314.00;5031555;28;20029;-83
2022/01/27 08:48:09;;;;;;;29.15;15.10;;;;;;;3.80;92.59;102318.25;5021596;28;20025;-83
2022/01/27 08:50:35;;;;;;;30.05;15.88;;;;;;;3.81;93.06;102320.88;5017910;28;20030;-83
2022/01/27 08:53:01;;;;;;;28.75;14.73;;;;;;;3.84;92.97;102317.56;5032346;28;20113;-82
2022/01/27 08:55:26;;;;;;;28.88;15.35;;;;;;;3.84;92.51;102313.28;5031431;28;20474;-83
2022/01/27 08:57:51;;;;;;;29.60;15.00;;;;;;;3.89;92.93;102315.16;5023028;28;20076;-83
2022/01/27 09:00:20;;;;;;;29.27;14.40;;;;;;;3.90;92.60;102312.63;5020170;28;20052;-83
2022/01/27 09:02:46;;;;;;;28.70;15.43;;;;;;;3.91;93.46;102313.50;5026871;28;20030;-83
2022/01/27 09:05:12;;;;;;;28.95;14.93;;;;;;;3.94;93.13;102326.47;5027197;28;20452;-82
2022/01/27 09:07:37;;;;;;;28.95;15.90;;;;;;;3.95;94.09;102312.78;5033422;28;20185;-83
2022/01/27 09:10:04;;;;;;;33.50;17.60;;;;;;;4.00;94.00;102307.00;5013838;28;20030;-84
2022/01/27 09:12:33;;;;;;;30.67;16.35;;;;;;;4.04;93.76;102314.81;5013033;28;20033;-83
2022/01/27 09:14:59;;;;;;;30.77;16.50;;;;;;;4.06;94.44;102311.47;5013344;28;20549;-83
2022/01/27 09:17:26;;;;;;;31.70;16.60;;;;;;;4.09;94.45;102301.31;5016393;28;20117;-89
2022/01/27 09:19:57;;;;;;;30.98;16.58;;;;;;;4.12;94.50;102310.81;5033120;28;20124;-85
2022/01/27 09:22:34;;;;;;;30.25;16.85;;;;;;;4.11;94.00;102309.94;5033833;28;20061;-84
2022/01/27 09:25:15;;;;;;;29.08;15.82;;;;;;;4.15;94.29;102308.34;5033447;28;20029;-84
2022/01/27 09:27:42;;;;;;;29.50;15.65;;;;;;;4.18;94.79;102303.34;5032752;28;20469;-85
2022/01/27 09:30:10;;;;;;;27.17;14.93;;;;;;;4.23;94.72;102306.06;5033644;28;20021;-85
2022/01/27 09:32:36;;;;;;;28.35;15.13;;;;;;;4.24;94.87;102311.25;5033620;28;20040;-85
2022/01/27 09:35:02;;;;;;;27.70;15.35;;;;;;;4.25;95.08;102307.00;5032650;28;20026;-85
2022/01/27 09:37:27;;;;;;;29.20;15.77;;;;;;;4.26;95.03;102309.59;5031374;28;20366;-85
2022/01/27 09:39:52;;;;;;;27.85;15.27;;;;;;;4.29;94.45;102311.41;5033214;28;20026;-85
2022/01/27 09:42:17;;;;;;;25.10;13.43;;;;;;;4.32;94.26;102312.41;5032338;28;20029;-85
2022/01/27 09:44:46;;;;;;;27.42;15.00;;;;;;;4.32;94.45;102309.84;5033032;28;20439;-85
2022/01/27 09:47:15;;;;;;;24.50;13.05;;;;;;;4.38;94.52;102313.41;5032589;28;20089;-85
2022/01/27 09:49:52;;;;;;;24.25;12.95;;;;;;;4.39;94.44;102310.88;5033243;28;20022;-85
2022/01/27 09:52:19;;;;;;;25.23;14.20;;;;;;;4.36;94.83;102310.81;5033180;28;20044;-85
2022/01/27 09:54:45;;;;;;;26.80;14.35;;;;;;;4.41;95.14;102313.53;5031888;28;20081;-85
2022/01/27 09:57:14;;;;;;;25.60;14.47;;;;;;;4.39;95.28;102313.47;5033131;28;20474;-85
2022/01/27 09:59:41;;;;;;;26.17;14.65;;;;;;;4.46;95.00;102328.28;5033374;28;20108;-84
2022/01/27 10:02:09;;;;;;;26.30;13.70;;;;;;;4.48;95.12;102336.03;5030663;28;20037;-82
2022/01/27 10:04:48;;;;;;;26.40;14.50;;;;;;;4.54;94.93;102328.56;5032621;28;20025;-85
2022/01/27 10:07:17;;;;;;;27.00;15.50;;;;;;;4.52;95.22;102329.31;5028036;28;20075;-85
2022/01/27 10:10:05;;;;;;;26.58;15.20;;;;;;;4.52;95.60;102322.47;5031606;28;20022;-85
2022/01/27 10:12:39;;;;;;;24.65;13.40;;;;;;;4.59;95.36;102329.56;5024780;28;20026;-84
2022/01/27 10:15:17;;;;;;;24.13;13.55;;;;;;;4.57;95.45;102317.47;5012855;28;20065;-85
2022/01/27 10:18:17;;;;;;;25.65;13.57;;;;;;;4.59;95.60;102321.84;5009678;28;20029;-84
2022/01/27 10:20:51;;;;;;;22.20;12.18;;;;;;;4.62;95.35;102326.22;5012493;28;20492;-84
2022/01/27 10:23:20;;;;;;;22.15;12.52;;;;;;;4.64;95.67;102322.00;5012511;28;20026;-84
2022/01/27 10:26:00;;;;;;;23.98;13.55;;;;;;;4.68;95.99;102330.69;5030325;28;20032;-85
2022/01/27 10:28:32;;;;;;;22.98;12.48;;;;;;;4.70;95.62;102318.75;5027040;28;20064;-85
2022/01/27 10:30:59;;;;;;;23.45;13.15;;;;;;;4.68;95.92;102313.56;5030531;28;20481;-85
2022/01/27 10:33:25;;;;;;;;;;;;;;;4.71;95.95;102315.34;5032465;28;20034;-84
2022/01/27 10:35:50;;;;;;;22.30;11.60;;;;;;;4.71;95.70;102323.06;5012577;28;19919;-84
2022/01/27 10:38:16;;;;;;;23.05;12.35;;;;;;;4.74;95.63;102326.63;5011820;28;20029;-85
2022/01/27 10:40:45;;;;;;;20.83;10.75;;;;;;;4.76;95.64;102316.41;5012601;28;20093;-84
2022/01/27 10:43:15;;;;;;;20.65;10.43;;;;;;;4.77;95.84;102313.88;5011287;28;20389;-85
2022/01/27 10:46:11;;;;;;;19.98;10.30;;;;;;;4.80;95.69;102315.66;5012031;28;20112;-84
2022/01/27 10:48:52;;;;;;;20.80;11.35;;;;;;;4.83;96.05;102313.19;5013003;28;20033;-84
2022/01/27 10:51:23;;;;;;;19.95;10.18;;;;;;;4.82;95.70;102310.56;5012214;28;20113;-85
2022/01/27 10:53:57;;;;;;;19.35;10.82;;;;;;;4.86;95.81;102313.28;5012678;28;20033;-84
2022/01/27 10:56:29;;;;;;;20.25;11.02;;;;;;;4.87;95.77;102309.00;5023535;28;20053;-85
2022/01/27 10:58:56;;;;;;;19.50;10.40;;;;;;;4.89;96.12;102322.81;5031782;28;20377;-84
2022/01/27 11:01:41;;;;;;;18.27;9.30;;;;;;;4.92;95.92;102323.78;5032373;28;20462;-86
2022/01/27 11:04:14;;;;;;;18.75;9.75;;;;;;;4.95;96.02;102323.00;5032336;28;20109;-85
2022/01/27 11:06:54;;;;;;;17.83;9.18;;;;;;;5.03;95.89;102316.41;5031645;28;20367;-84
2022/01/27 11:09:20;;;;;;;19.90;10.20;;;;;;;4.98;95.99;102301.66;5032500;28;20030;-84
2022/01/27 11:11:48;;;;;;;18.88;9.95;;;;;;;5.01;95.43;102307.75;5031267;28;20036;-85
2022/01/27 11:14:13;;;;;;;19.70;10.38;;;;;;;5.08;96.43;102311.41;5032386;28;20492;-85
2022/01/27 11:16:44;;;;;;;20.45;10.82;;;;;;;5.09;96.61;102297.72;5032624;28;20030;-85
2022/01/27 11:22:03;;;;;;;18.30;9.38;;;;;;;5.12;96.68;102291.78;5017971;28;20462;-84
2022/01/27 11:25:05;;;;;;;18.35;9.18;;;;;;;5.16;96.67;102288.47;5015993;28;20024;-83
2022/01/27 11:27:33;;;;;;;19.80;10.10;;;;;;;5.19;96.62;102281.72;5033958;28;20037;-83
2022/01/27 11:30:01;;;;;;;;;;;;;;;5.30;96.25;102286.31;5035907;28;20029;-83
2022/01/27 11:33:02;;;;;;;18.58;9.63;;;;;;;5.34;96.43;102291.59;5035562;28;19916;-83
2022/01/27 11:35:27;;;;;;;19.50;10.52;;;;;;;5.41;96.42;102278.06;4993121;28;20046;-83
2022/01/27 11:37:55;;;;;;;22.25;11.27;;;;;;;5.42;97.17;102276.38;5035626;28;20089;-83
2022/01/27 11:40:33;;;;;;;21.25;10.55;;;;;;;5.47;96.92;102273.94;5034935;28;20026;-84
2022/01/27 11:42:58;;;;;;;18.90;9.82;;;;;;;5.50;96.86;102276.59;5035293;28;20060;-83
2022/01/27 11:45:23;;;;;;;19.67;9.95;;;;;;;5.52;97.09;102262.94;5035155;28;20045;-82
2022/01/27 11:48:00;;;;;;;18.77;9.52;;;;;;;5.53;96.72;102268.94;5033871;28;20389;-83
2022/01/27 11:50:36;;;;;;;18.40;8.88;;;;;;;5.54;96.84;102255.25;5016526;28;20025;-82
2022/01/27 11:53:04;;;;;;;18.60;9.27;;;;;;;5.61;96.96;102262.31;5016204;28;20140;-83
2022/01/27 11:55:35;;;;;;;19.52;9.93;;;;;;;5.65;96.57;102261.56;5034802;28;20300;-83
2022/01/27 11:58:20;;;;;;;19.85;10.10;;;;;;;5.69;96.59;102268.56;5034611;28;20029;-83
2022/01/27 12:01:14;;;;;;;19.50;9.77;;;;;;;5.69;96.68;102265.97;5022668;28;20069;-82
2022/01/27 12:03:40;;;;;;;18.95;9.05;;;;;;;5.71;96.93;102260.88;5015021;28;20026;-83
2022/01/27 12:06:17;;;;;;;17.75;8.77;;;;;;;5.75;97.05;102262.69;5014808;28;20052;-82
2022/01/27 12:08:42;;;;;;;18.92;8.82;;;;;;;5.75;97.38;102264.38;5014552;28;20520;-83